sensor_id;sensor_type;location;lat;lon;timestamp;P1;durP1;ratioP1;P2;durP2;ratioP2
82806;SDS011;72563;44.816;20.484;2024-03-25T00:00:16;13.15;;;7.18;;
82806;SDS011;72563;44.816;20.484;2024-03-25T00:02:43;12.35;;;6.78;;
82806;SDS011;72563;44.816;20.484;2024-03-25T00:05:09;12.40;;;7.05;;
82806;SDS011;72563;44.816;20.484;2024-03-25T00:07:38;13.10;;;7.22;;
82806;SDS011;72563;44.816;20.484;2024-03-25T00:10:04;11.60;;;6.35;;
82806;SDS011;72563;44.816;20.484;2024-03-25T00:12:33;12.13;;;6.70;;
82806;SDS011;72563;44.816;20.484;2024-03-25T00:14:59;14.07;;;6.75;;
82806;SDS011;72563;44.816;20.484;2024-03-25T00:17:25;13.43;;;7.38;;
82806;SDS011;72563;44.816;20.484;2024-03-25T00:19:51;14.15;;;8.13;;
82806;SDS011;72563;44.816;20.484;2024-03-25T00:22:17;16.52;;;8.25;;
82806;SDS011;72563;44.816;20.484;2024-03-25T00:24:44;14.38;;;8.40;;
82806;SDS011;72563;44.816;20.484;2024-03-25T00:27:13;14.82;;;8.73;;
82806;SDS011;72563;44.816;20.484;2024-03-25T00:29:39;15.30;;;8.77;;
82806;SDS011;72563;44.816;20.484;2024-03-25T00:32:05;16.77;;;9.35;;
82806;SDS011;72563;44.816;20.484;2024-03-25T00:34:31;16.83;;;9.20;;
82806;SDS011;72563;44.816;20.484;2024-03-25T00:36:58;15.38;;;8.32;;
82806;SDS011;72563;44.816;20.484;2024-03-25T00:39:24;17.52;;;8.95;;
82806;SDS011;72563;44.816;20.484;2024-03-25T00:41:51;14.93;;;8.90;;
82806;SDS011;72563;44.816;20.484;2024-03-25T00:44:17;16.00;;;8.88;;
82806;SDS011;72563;44.816;20.484;2024-03-25T00:46:43;15.85;;;9.05;;
82806;SDS011;72563;44.816;20.484;2024-03-25T00:49:09;18.08;;;9.40;;
82806;SDS011;72563;44.816;20.484;2024-03-25T00:51:35;16.75;;;9.02;;
82806;SDS011;72563;44.816;20.484;2024-03-25T00:54:01;18.30;;;9.25;;
82806;SDS011;72563;44.816;20.484;2024-03-25T00:56:28;19.45;;;10.00;;
82806;SDS011;72563;44.816;20.484;2024-03-25T00:58:54;17.73;;;9.15;;
82806;SDS011;72563;44.816;20.484;2024-03-25T01:01:23;18.20;;;10.05;;
82806;SDS011;72563;44.816;20.484;2024-03-25T01:03:49;19.52;;;9.75;;
82806;SDS011;72563;44.816;20.484;2024-03-25T01:06:14;17.50;;;9.52;;
82806;SDS011;72563;44.816;20.484;2024-03-25T01:08:40;16.52;;;9.73;;
82806;SDS011;72563;44.816;20.484;2024-03-25T01:11:07;18.55;;;8.55;;
82806;SDS011;72563;44.816;20.484;2024-03-25T01:13:32;19.67;;;9.48;;
82806;SDS011;72563;44.816;20.484;2024-03-25T01:15:59;17.02;;;8.82;;
82806;SDS011;72563;44.816;20.484;2024-03-25T01:18:25;18.08;;;9.23;;
82806;SDS011;72563;44.816;20.484;2024-03-25T01:20:51;16.35;;;9.05;;
82806;SDS011;72563;44.816;20.484;2024-03-25T01:23:17;18.45;;;9.55;;
82806;SDS011;72563;44.816;20.484;2024-03-25T01:25:42;20.10;;;9.93;;
82806;SDS011;72563;44.816;20.484;2024-03-25T01:28:11;17.40;;;9.38;;
82806;SDS011;72563;44.816;20.484;2024-03-25T01:30:37;16.20;;;8.85;;
82806;SDS011;72563;44.816;20.484;2024-03-25T01:33:04;16.70;;;9.88;;
82806;SDS011;72563;44.816;20.484;2024-03-25T01:35:30;16.83;;;9.45;;
82806;SDS011;72563;44.816;20.484;2024-03-25T01:37:56;17.63;;;8.93;;
82806;SDS011;72563;44.816;20.484;2024-03-25T01:40:22;16.67;;;9.18;;
82806;SDS011;72563;44.816;20.484;2024-03-25T01:42:55;18.35;;;8.82;;
82806;SDS011;72563;44.816;20.484;2024-03-25T01:45:29;17.48;;;9.38;;
82806;SDS011;72563;44.816;20.484;2024-03-25T01:47:59;22.00;;;10.98;;
82806;SDS011;72563;44.816;20.484;2024-03-25T01:50:28;15.02;;;8.38;;
82806;SDS011;72563;44.816;20.484;2024-03-25T01:52:54;15.32;;;7.60;;
82806;SDS011;72563;44.816;20.484;2024-03-25T01:55:21;17.52;;;8.90;;
82806;SDS011;72563;44.816;20.484;2024-03-25T01:57:53;17.83;;;8.88;;
82806;SDS011;72563;44.816;20.484;2024-03-25T02:00:19;17.27;;;8.35;;
82806;SDS011;72563;44.816;20.484;2024-03-25T02:02:45;16.67;;;9.60;;
82806;SDS011;72563;44.816;20.484;2024-03-25T02:05:15;14.77;;;8.55;;
82806;SDS011;72563;44.816;20.484;2024-03-25T02:07:42;18.58;;;9.13;;
82806;SDS011;72563;44.816;20.484;2024-03-25T02:10:08;17.73;;;9.30;;
82806;SDS011;72563;44.816;20.484;2024-03-25T02:12:41;16.52;;;9.60;;
82806;SDS011;72563;44.816;20.484;2024-03-25T02:15:08;35.30;;;16.65;;
82806;SDS011;72563;44.816;20.484;2024-03-25T02:17:34;18.20;;;9.95;;
82806;SDS011;72563;44.816;20.484;2024-03-25T02:20:03;18.08;;;9.20;;
82806;SDS011;72563;44.816;20.484;2024-03-25T02:22:31;16.50;;;9.35;;
82806;SDS011;72563;44.816;20.484;2024-03-25T02:24:58;17.15;;;9.00;;
82806;SDS011;72563;44.816;20.484;2024-03-25T02:27:26;15.77;;;8.90;;
82806;SDS011;72563;44.816;20.484;2024-03-25T02:30:07;16.88;;;9.35;;
82806;SDS011;72563;44.816;20.484;2024-03-25T02:32:38;18.08;;;9.88;;
82806;SDS011;72563;44.816;20.484;2024-03-25T02:35:04;16.60;;;8.68;;
82806;SDS011;72563;44.816;20.484;2024-03-25T02:37:32;19.00;;;9.70;;
82806;SDS011;72563;44.816;20.484;2024-03-25T02:39:59;18.17;;;8.93;;
82806;SDS011;72563;44.816;20.484;2024-03-25T02:42:26;17.38;;;9.05;;
82806;SDS011;72563;44.816;20.484;2024-03-25T02:44:53;16.45;;;8.90;;
82806;SDS011;72563;44.816;20.484;2024-03-25T02:47:31;16.38;;;8.95;;
82806;SDS011;72563;44.816;20.484;2024-03-25T02:49:57;18.55;;;9.88;;
82806;SDS011;72563;44.816;20.484;2024-03-25T02:52:23;17.50;;;9.57;;
82806;SDS011;72563;44.816;20.484;2024-03-25T02:54:49;14.32;;;7.72;;
82806;SDS011;72563;44.816;20.484;2024-03-25T02:57:14;18.33;;;8.82;;
82806;SDS011;72563;44.816;20.484;2024-03-25T02:59:40;17.92;;;10.23;;
82806;SDS011;72563;44.816;20.484;2024-03-25T03:02:05;16.70;;;9.43;;
82806;SDS011;72563;44.816;20.484;2024-03-25T03:04:32;19.55;;;9.10;;
82806;SDS011;72563;44.816;20.484;2024-03-25T03:06:59;18.92;;;10.00;;
82806;SDS011;72563;44.816;20.484;2024-03-25T03:09:25;15.63;;;8.95;;
82806;SDS011;72563;44.816;20.484;2024-03-25T03:11:50;15.93;;;9.27;;
82806;SDS011;72563;44.816;20.484;2024-03-25T03:14:16;20.90;;;10.52;;
82806;SDS011;72563;44.816;20.484;2024-03-25T03:16:42;21.13;;;11.15;;
82806;SDS011;72563;44.816;20.484;2024-03-25T03:19:07;23.48;;;11.15;;
82806;SDS011;72563;44.816;20.484;2024-03-25T03:21:33;23.55;;;12.77;;
82806;SDS011;72563;44.816;20.484;2024-03-25T03:23:59;19.25;;;10.48;;
82806;SDS011;72563;44.816;20.484;2024-03-25T03:26:24;17.17;;;9.57;;
82806;SDS011;72563;44.816;20.484;2024-03-25T03:28:54;17.77;;;8.82;;
82806;SDS011;72563;44.816;20.484;2024-03-25T03:31:21;19.52;;;9.68;;
82806;SDS011;72563;44.816;20.484;2024-03-25T03:33:47;19.20;;;9.63;;
82806;SDS011;72563;44.816;20.484;2024-03-25T03:36:14;18.15;;;10.93;;
82806;SDS011;72563;44.816;20.484;2024-03-25T03:38:41;25.38;;;12.73;;
82806;SDS011;72563;44.816;20.484;2024-03-25T03:41:07;21.23;;;12.05;;
82806;SDS011;72563;44.816;20.484;2024-03-25T03:43:33;19.48;;;11.65;;
82806;SDS011;72563;44.816;20.484;2024-03-25T03:45:58;18.27;;;9.32;;
82806;SDS011;72563;44.816;20.484;2024-03-25T03:48:24;19.67;;;10.40;;
82806;SDS011;72563;44.816;20.484;2024-03-25T03:50:51;17.85;;;9.15;;
82806;SDS011;72563;44.816;20.484;2024-03-25T03:53:17;19.05;;;9.63;;
82806;SDS011;72563;44.816;20.484;2024-03-25T03:55:52;15.65;;;8.13;;
82806;SDS011;72563;44.816;20.484;2024-03-25T03:58:29;16.83;;;9.40;;
82806;SDS011;72563;44.816;20.484;2024-03-25T04:00:54;19.77;;;9.90;;
82806;SDS011;72563;44.816;20.484;2024-03-25T04:03:21;18.60;;;9.30;;
82806;SDS011;72563;44.816;20.484;2024-03-25T04:05:47;19.23;;;9.13;;
82806;SDS011;72563;44.816;20.484;2024-03-25T04:08:13;15.55;;;7.93;;
82806;SDS011;72563;44.816;20.484;2024-03-25T04:10:39;17.92;;;9.65;;
82806;SDS011;72563;44.816;20.484;2024-03-25T04:13:06;21.70;;;10.85;;
82806;SDS011;72563;44.816;20.484;2024-03-25T04:15:36;22.38;;;11.50;;
82806;SDS011;72563;44.816;20.484;2024-03-25T04:18:02;20.45;;;11.40;;
82806;SDS011;72563;44.816;20.484;2024-03-25T04:20:29;19.83;;;10.50;;
82806;SDS011;72563;44.816;20.484;2024-03-25T04:23:00;18.23;;;9.50;;
82806;SDS011;72563;44.816;20.484;2024-03-25T04:25:26;17.98;;;9.13;;
82806;SDS011;72563;44.816;20.484;2024-03-25T04:27:52;19.27;;;9.45;;
82806;SDS011;72563;44.816;20.484;2024-03-25T04:30:17;16.83;;;8.73;;
82806;SDS011;72563;44.816;20.484;2024-03-25T04:32:43;20.02;;;10.35;;
82806;SDS011;72563;44.816;20.484;2024-03-25T04:35:11;21.17;;;9.68;;
82806;SDS011;72563;44.816;20.484;2024-03-25T04:37:36;17.02;;;8.02;;
82806;SDS011;72563;44.816;20.484;2024-03-25T04:40:02;18.48;;;9.45;;
82806;SDS011;72563;44.816;20.484;2024-03-25T04:42:28;18.63;;;9.82;;
82806;SDS011;72563;44.816;20.484;2024-03-25T04:44:54;20.60;;;9.02;;
82806;SDS011;72563;44.816;20.484;2024-03-25T04:47:20;19.52;;;9.93;;
82806;SDS011;72563;44.816;20.484;2024-03-25T04:49:46;18.40;;;9.98;;
82806;SDS011;72563;44.816;20.484;2024-03-25T04:52:12;20.30;;;10.98;;
82806;SDS011;72563;44.816;20.484;2024-03-25T04:54:38;17.50;;;9.02;;
82806;SDS011;72563;44.816;20.484;2024-03-25T04:57:04;20.55;;;9.90;;
82806;SDS011;72563;44.816;20.484;2024-03-25T04:59:31;19.00;;;9.95;;
82806;SDS011;72563;44.816;20.484;2024-03-25T05:01:57;18.08;;;9.43;;
82806;SDS011;72563;44.816;20.484;2024-03-25T05:04:23;18.48;;;9.75;;
82806;SDS011;72563;44.816;20.484;2024-03-25T05:06:50;19.70;;;9.45;;
82806;SDS011;72563;44.816;20.484;2024-03-25T05:09:17;22.52;;;10.48;;
82806;SDS011;72563;44.816;20.484;2024-03-25T05:11:45;19.77;;;10.10;;
82806;SDS011;72563;44.816;20.484;2024-03-25T05:14:12;17.48;;;9.32;;
82806;SDS011;72563;44.816;20.484;2024-03-25T05:16:37;18.05;;;9.13;;
82806;SDS011;72563;44.816;20.484;2024-03-25T05:19:03;16.85;;;8.43;;
82806;SDS011;72563;44.816;20.484;2024-03-25T05:21:30;18.80;;;9.98;;
82806;SDS011;72563;44.816;20.484;2024-03-25T05:23:56;20.60;;;9.90;;
82806;SDS011;72563;44.816;20.484;2024-03-25T05:26:22;21.33;;;10.07;;
82806;SDS011;72563;44.816;20.484;2024-03-25T05:28:54;23.08;;;10.10;;
82806;SDS011;72563;44.816;20.484;2024-03-25T05:31:20;18.02;;;9.48;;
82806;SDS011;72563;44.816;20.484;2024-03-25T05:33:47;20.90;;;9.60;;
82806;SDS011;72563;44.816;20.484;2024-03-25T05:36:13;18.10;;;9.35;;
82806;SDS011;72563;44.816;20.484;2024-03-25T05:38:39;21.20;;;9.80;;
82806;SDS011;72563;44.816;20.484;2024-03-25T05:41:04;19.27;;;9.48;;
82806;SDS011;72563;44.816;20.484;2024-03-25T05:43:30;17.38;;;9.25;;
82806;SDS011;72563;44.816;20.484;2024-03-25T05:45:57;17.17;;;9.57;;
82806;SDS011;72563;44.816;20.484;2024-03-25T05:48:25;19.58;;;9.57;;
82806;SDS011;72563;44.816;20.484;2024-03-25T05:51:02;20.35;;;10.18;;
82806;SDS011;72563;44.816;20.484;2024-03-25T05:53:33;19.45;;;9.70;;
82806;SDS011;72563;44.816;20.484;2024-03-25T05:55:59;18.30;;;9.75;;
82806;SDS011;72563;44.816;20.484;2024-03-25T05:58:26;65.88;;;21.27;;
82806;SDS011;72563;44.816;20.484;2024-03-25T06:00:52;22.55;;;10.57;;
82806;SDS011;72563;44.816;20.484;2024-03-25T06:03:18;54.80;;;17.13;;
82806;SDS011;72563;44.816;20.484;2024-03-25T06:05:45;41.17;;;14.75;;
82806;SDS011;72563;44.816;20.484;2024-03-25T06:08:10;67.05;;;20.65;;
82806;SDS011;72563;44.816;20.484;2024-03-25T06:10:49;43.85;;;16.60;;
82806;SDS011;72563;44.816;20.484;2024-03-25T06:13:19;56.55;;;20.38;;
82806;SDS011;72563;44.816;20.484;2024-03-25T06:15:46;29.48;;;14.00;;
82806;SDS011;72563;44.816;20.484;2024-03-25T06:18:12;21.25;;;10.43;;
82806;SDS011;72563;44.816;20.484;2024-03-25T06:20:38;23.13;;;11.65;;
82806;SDS011;72563;44.816;20.484;2024-03-25T06:23:05;19.17;;;10.07;;
82806;SDS011;72563;44.816;20.484;2024-03-25T06:25:31;23.00;;;10.30;;
82806;SDS011;72563;44.816;20.484;2024-03-25T06:27:58;23.15;;;10.63;;
82806;SDS011;72563;44.816;20.484;2024-03-25T06:30:24;23.30;;;11.07;;
82806;SDS011;72563;44.816;20.484;2024-03-25T06:33:08;21.08;;;9.82;;
82806;SDS011;72563;44.816;20.484;2024-03-25T06:35:56;23.58;;;10.45;;
82806;SDS011;72563;44.816;20.484;2024-03-25T06:38:24;18.77;;;9.98;;
82806;SDS011;72563;44.816;20.484;2024-03-25T06:40:49;25.77;;;11.80;;
82806;SDS011;72563;44.816;20.484;2024-03-25T06:43:16;24.77;;;11.60;;
82806;SDS011;72563;44.816;20.484;2024-03-25T06:45:43;17.17;;;8.50;;
82806;SDS011;72563;44.816;20.484;2024-03-25T06:48:09;22.85;;;11.43;;
82806;SDS011;72563;44.816;20.484;2024-03-25T06:50:35;19.00;;;9.77;;
82806;SDS011;72563;44.816;20.484;2024-03-25T06:53:02;19.20;;;9.05;;
82806;SDS011;72563;44.816;20.484;2024-03-25T06:55:27;18.30;;;9.77;;
82806;SDS011;72563;44.816;20.484;2024-03-25T06:57:53;20.23;;;10.93;;
82806;SDS011;72563;44.816;20.484;2024-03-25T07:00:19;21.27;;;10.93;;
82806;SDS011;72563;44.816;20.484;2024-03-25T07:02:47;18.20;;;10.90;;
82806;SDS011;72563;44.816;20.484;2024-03-25T07:05:16;20.10;;;10.48;;
82806;SDS011;72563;44.816;20.484;2024-03-25T07:07:41;19.50;;;10.50;;
82806;SDS011;72563;44.816;20.484;2024-03-25T07:10:07;20.42;;;11.18;;
82806;SDS011;72563;44.816;20.484;2024-03-25T07:12:33;18.77;;;9.38;;
82806;SDS011;72563;44.816;20.484;2024-03-25T07:14:59;19.00;;;10.32;;
82806;SDS011;72563;44.816;20.484;2024-03-25T07:17:25;16.23;;;9.35;;
82806;SDS011;72563;44.816;20.484;2024-03-25T07:19:52;17.55;;;9.32;;
82806;SDS011;72563;44.816;20.484;2024-03-25T07:22:18;23.80;;;10.23;;
82806;SDS011;72563;44.816;20.484;2024-03-25T07:24:44;17.58;;;10.45;;
82806;SDS011;72563;44.816;20.484;2024-03-25T07:27:12;20.45;;;8.55;;
82806;SDS011;72563;44.816;20.484;2024-03-25T07:29:39;16.95;;;9.55;;
82806;SDS011;72563;44.816;20.484;2024-03-25T07:32:05;17.80;;;10.80;;
82806;SDS011;72563;44.816;20.484;2024-03-25T07:34:30;18.58;;;9.98;;
82806;SDS011;72563;44.816;20.484;2024-03-25T07:36:56;14.77;;;8.88;;
82806;SDS011;72563;44.816;20.484;2024-03-25T07:39:22;18.77;;;10.48;;
82806;SDS011;72563;44.816;20.484;2024-03-25T07:41:49;19.55;;;10.32;;
82806;SDS011;72563;44.816;20.484;2024-03-25T07:44:15;17.90;;;10.10;;
82806;SDS011;72563;44.816;20.484;2024-03-25T07:46:41;15.88;;;9.43;;
82806;SDS011;72563;44.816;20.484;2024-03-25T07:49:06;16.83;;;9.40;;
82806;SDS011;72563;44.816;20.484;2024-03-25T07:51:32;19.08;;;9.77;;
82806;SDS011;72563;44.816;20.484;2024-03-25T07:54:00;18.08;;;9.43;;
82806;SDS011;72563;44.816;20.484;2024-03-25T07:56:25;19.13;;;8.35;;
82806;SDS011;72563;44.816;20.484;2024-03-25T07:58:51;17.33;;;9.82;;
82806;SDS011;72563;44.816;20.484;2024-03-25T08:01:17;17.02;;;9.48;;
82806;SDS011;72563;44.816;20.484;2024-03-25T08:03:44;20.05;;;11.13;;
82806;SDS011;72563;44.816;20.484;2024-03-25T08:06:10;17.95;;;9.48;;
82806;SDS011;72563;44.816;20.484;2024-03-25T08:08:37;17.42;;;8.30;;
82806;SDS011;72563;44.816;20.484;2024-03-25T08:11:04;18.88;;;9.13;;
82806;SDS011;72563;44.816;20.484;2024-03-25T08:13:30;16.58;;;9.05;;
82806;SDS011;72563;44.816;20.484;2024-03-25T08:15:55;17.92;;;8.68;;
82806;SDS011;72563;44.816;20.484;2024-03-25T08:18:21;16.30;;;7.90;;
82806;SDS011;72563;44.816;20.484;2024-03-25T08:20:47;20.00;;;9.38;;
82806;SDS011;72563;44.816;20.484;2024-03-25T08:23:12;15.15;;;8.05;;
82806;SDS011;72563;44.816;20.484;2024-03-25T08:25:38;16.52;;;8.00;;
82806;SDS011;72563;44.816;20.484;2024-03-25T08:28:04;15.38;;;8.65;;
82806;SDS011;72563;44.816;20.484;2024-03-25T08:30:30;16.83;;;8.25;;
82806;SDS011;72563;44.816;20.484;2024-03-25T08:32:55;13.77;;;7.55;;
82806;SDS011;72563;44.816;20.484;2024-03-25T08:35:21;23.58;;;7.30;;
82806;SDS011;72563;44.816;20.484;2024-03-25T08:37:47;15.32;;;8.05;;
82806;SDS011;72563;44.816;20.484;2024-03-25T08:40:13;14.55;;;6.78;;
82806;SDS011;72563;44.816;20.484;2024-03-25T08:42:40;16.75;;;8.90;;
82806;SDS011;72563;44.816;20.484;2024-03-25T08:45:06;13.30;;;8.00;;
82806;SDS011;72563;44.816;20.484;2024-03-25T08:47:32;14.90;;;8.05;;
82806;SDS011;72563;44.816;20.484;2024-03-25T08:49:57;12.98;;;7.72;;
82806;SDS011;72563;44.816;20.484;2024-03-25T08:52:23;14.75;;;7.85;;
82806;SDS011;72563;44.816;20.484;2024-03-25T08:54:49;14.50;;;7.80;;
82806;SDS011;72563;44.816;20.484;2024-03-25T08:57:14;14.18;;;6.88;;
82806;SDS011;72563;44.816;20.484;2024-03-25T08:59:41;14.38;;;6.72;;
82806;SDS011;72563;44.816;20.484;2024-03-25T09:02:09;12.50;;;6.82;;
82806;SDS011;72563;44.816;20.484;2024-03-25T09:04:34;12.95;;;6.72;;
82806;SDS011;72563;44.816;20.484;2024-03-25T09:07:01;13.55;;;6.63;;
82806;SDS011;72563;44.816;20.484;2024-03-25T09:09:28;12.05;;;6.63;;
82806;SDS011;72563;44.816;20.484;2024-03-25T09:12:12;10.82;;;5.30;;
82806;SDS011;72563;44.816;20.484;2024-03-25T09:14:38;12.60;;;5.97;;
82806;SDS011;72563;44.816;20.484;2024-03-25T09:17:04;11.98;;;5.65;;
82806;SDS011;72563;44.816;20.484;2024-03-25T09:19:30;8.73;;;4.38;;
82806;SDS011;72563;44.816;20.484;2024-03-25T09:21:55;9.35;;;4.90;;
82806;SDS011;72563;44.816;20.484;2024-03-25T09:24:21;7.97;;;4.30;;
82806;SDS011;72563;44.816;20.484;2024-03-25T09:26:49;10.93;;;4.57;;
82806;SDS011;72563;44.816;20.484;2024-03-25T09:29:16;11.55;;;6.30;;
82806;SDS011;72563;44.816;20.484;2024-03-25T09:31:42;9.30;;;4.03;;
82806;SDS011;72563;44.816;20.484;2024-03-25T09:34:08;9.02;;;3.90;;
82806;SDS011;72563;44.816;20.484;2024-03-25T09:36:34;9.25;;;4.07;;
82806;SDS011;72563;44.816;20.484;2024-03-25T09:38:59;8.45;;;3.80;;
82806;SDS011;72563;44.816;20.484;2024-03-25T09:41:25;8.18;;;4.00;;
82806;SDS011;72563;44.816;20.484;2024-03-25T09:43:55;8.18;;;3.97;;
82806;SDS011;72563;44.816;20.484;2024-03-25T09:46:22;8.88;;;4.03;;
82806;SDS011;72563;44.816;20.484;2024-03-25T09:48:54;8.77;;;3.97;;
82806;SDS011;72563;44.816;20.484;2024-03-25T09:51:20;7.38;;;3.95;;
82806;SDS011;72563;44.816;20.484;2024-03-25T09:53:46;8.85;;;4.63;;
82806;SDS011;72563;44.816;20.484;2024-03-25T09:56:12;7.75;;;3.47;;
82806;SDS011;72563;44.816;20.484;2024-03-25T09:58:40;8.82;;;3.70;;
82806;SDS011;72563;44.816;20.484;2024-03-25T10:01:09;7.28;;;3.42;;
82806;SDS011;72563;44.816;20.484;2024-03-25T10:03:35;7.95;;;3.75;;
82806;SDS011;72563;44.816;20.484;2024-03-25T10:06:03;8.60;;;4.25;;
82806;SDS011;72563;44.816;20.484;2024-03-25T10:08:29;8.30;;;4.28;;
82806;SDS011;72563;44.816;20.484;2024-03-25T10:10:57;7.47;;;3.70;;
82806;SDS011;72563;44.816;20.484;2024-03-25T10:13:24;7.80;;;3.78;;
82806;SDS011;72563;44.816;20.484;2024-03-25T10:15:52;8.52;;;3.50;;
82806;SDS011;72563;44.816;20.484;2024-03-25T10:18:17;13.95;;;6.18;;
82806;SDS011;72563;44.816;20.484;2024-03-25T10:20:52;12.20;;;7.18;;
82806;SDS011;72563;44.816;20.484;2024-03-25T10:23:24;12.07;;;5.95;;
82806;SDS011;72563;44.816;20.484;2024-03-25T10:25:54;8.90;;;5.60;;
82806;SDS011;72563;44.816;20.484;2024-03-25T10:28:20;10.05;;;6.03;;
82806;SDS011;72563;44.816;20.484;2024-03-25T10:30:47;10.23;;;5.10;;
82806;SDS011;72563;44.816;20.484;2024-03-25T10:33:13;10.18;;;5.50;;
82806;SDS011;72563;44.816;20.484;2024-03-25T10:35:39;7.97;;;4.88;;
82806;SDS011;72563;44.816;20.484;2024-03-25T10:38:09;9.05;;;4.53;;
82806;SDS011;72563;44.816;20.484;2024-03-25T10:40:39;9.50;;;3.80;;
82806;SDS011;72563;44.816;20.484;2024-03-25T10:43:05;8.88;;;3.17;;
82806;SDS011;72563;44.816;20.484;2024-03-25T10:45:33;6.97;;;3.67;;
82806;SDS011;72563;44.816;20.484;2024-03-25T10:48:03;8.23;;;4.13;;
82806;SDS011;72563;44.816;20.484;2024-03-25T10:50:40;9.38;;;4.72;;
82806;SDS011;72563;44.816;20.484;2024-03-25T10:53:08;8.05;;;3.60;;
82806;SDS011;72563;44.816;20.484;2024-03-25T10:55:36;6.38;;;3.47;;
82806;SDS011;72563;44.816;20.484;2024-03-25T10:58:05;10.48;;;4.32;;
82806;SDS011;72563;44.816;20.484;2024-03-25T11:00:33;6.97;;;3.85;;
82806;SDS011;72563;44.816;20.484;2024-03-25T11:03:00;8.25;;;3.83;;
82806;SDS011;72563;44.816;20.484;2024-03-25T11:05:27;6.55;;;3.20;;
82806;SDS011;72563;44.816;20.484;2024-03-25T11:07:54;6.53;;;3.50;;
82806;SDS011;72563;44.816;20.484;2024-03-25T11:10:19;9.30;;;3.60;;
82806;SDS011;72563;44.816;20.484;2024-03-25T11:12:56;8.32;;;3.95;;
82806;SDS011;72563;44.816;20.484;2024-03-25T11:15:22;7.47;;;3.80;;
82806;SDS011;72563;44.816;20.484;2024-03-25T11:17:48;6.13;;;3.05;;
82806;SDS011;72563;44.816;20.484;2024-03-25T11:20:17;5.32;;;2.67;;
82806;SDS011;72563;44.816;20.484;2024-03-25T11:22:52;6.93;;;2.83;;
82806;SDS011;72563;44.816;20.484;2024-03-25T11:25:20;5.85;;;2.90;;
82806;SDS011;72563;44.816;20.484;2024-03-25T11:27:47;5.63;;;2.45;;
82806;SDS011;72563;44.816;20.484;2024-03-25T11:30:13;7.68;;;2.88;;
82806;SDS011;72563;44.816;20.484;2024-03-25T11:32:43;6.90;;;2.92;;
82806;SDS011;72563;44.816;20.484;2024-03-25T11:35:09;5.47;;;2.45;;
82806;SDS011;72563;44.816;20.484;2024-03-25T11:37:42;5.22;;;2.40;;
82806;SDS011;72563;44.816;20.484;2024-03-25T11:40:08;5.13;;;2.13;;
82806;SDS011;72563;44.816;20.484;2024-03-25T11:42:38;6.25;;;2.42;;
82806;SDS011;72563;44.816;20.484;2024-03-25T11:45:07;5.10;;;2.08;;
82806;SDS011;72563;44.816;20.484;2024-03-25T11:47:42;6.07;;;2.47;;
82806;SDS011;72563;44.816;20.484;2024-03-25T11:50:09;5.97;;;2.50;;
82806;SDS011;72563;44.816;20.484;2024-03-25T11:52:36;6.57;;;2.75;;
82806;SDS011;72563;44.816;20.484;2024-03-25T11:55:02;6.93;;;2.50;;
82806;SDS011;72563;44.816;20.484;2024-03-25T11:57:28;5.10;;;2.40;;
82806;SDS011;72563;44.816;20.484;2024-03-25T11:59:54;5.07;;;2.25;;
82806;SDS011;72563;44.816;20.484;2024-03-25T12:02:21;8.38;;;2.20;;
82806;SDS011;72563;44.816;20.484;2024-03-25T12:04:47;7.25;;;2.40;;
82806;SDS011;72563;44.816;20.484;2024-03-25T12:07:13;6.45;;;2.10;;
82806;SDS011;72563;44.816;20.484;2024-03-25T12:09:40;5.32;;;1.77;;
82806;SDS011;72563;44.816;20.484;2024-03-25T12:14:51;4.57;;;1.70;;
82806;SDS011;72563;44.816;20.484;2024-03-25T12:17:18;4.68;;;1.55;;
82806;SDS011;72563;44.816;20.484;2024-03-25T12:19:57;4.55;;;1.70;;
82806;SDS011;72563;44.816;20.484;2024-03-25T12:22:24;5.32;;;1.70;;
82806;SDS011;72563;44.816;20.484;2024-03-25T12:24:51;3.17;;;1.48;;
82806;SDS011;72563;44.816;20.484;2024-03-25T12:27:17;4.82;;;1.70;;
82806;SDS011;72563;44.816;20.484;2024-03-25T12:29:42;4.57;;;1.70;;
82806;SDS011;72563;44.816;20.484;2024-03-25T12:32:09;4.18;;;1.83;;
82806;SDS011;72563;44.816;20.484;2024-03-25T12:34:36;2.97;;;1.23;;
82806;SDS011;72563;44.816;20.484;2024-03-25T12:37:02;3.67;;;1.50;;
82806;SDS011;72563;44.816;20.484;2024-03-25T12:39:29;4.78;;;1.48;;
82806;SDS011;72563;44.816;20.484;2024-03-25T12:41:56;3.40;;;1.38;;
82806;SDS011;72563;44.816;20.484;2024-03-25T12:44:22;2.97;;;1.40;;
82806;SDS011;72563;44.816;20.484;2024-03-25T12:46:48;3.40;;;1.25;;
82806;SDS011;72563;44.816;20.484;2024-03-25T12:49:15;4.15;;;1.42;;
82806;SDS011;72563;44.816;20.484;2024-03-25T12:51:41;3.33;;;1.20;;
82806;SDS011;72563;44.816;20.484;2024-03-25T12:54:07;2.97;;;1.15;;
82806;SDS011;72563;44.816;20.484;2024-03-25T12:56:32;3.65;;;1.30;;
82806;SDS011;72563;44.816;20.484;2024-03-25T12:58:58;3.22;;;1.17;;
82806;SDS011;72563;44.816;20.484;2024-03-25T13:01:24;3.80;;;1.50;;
82806;SDS011;72563;44.816;20.484;2024-03-25T13:03:49;3.65;;;1.25;;
82806;SDS011;72563;44.816;20.484;2024-03-25T13:06:15;4.32;;;1.45;;
82806;SDS011;72563;44.816;20.484;2024-03-25T13:08:41;5.95;;;2.25;;
82806;SDS011;72563;44.816;20.484;2024-03-25T13:11:07;5.20;;;2.17;;
82806;SDS011;72563;44.816;20.484;2024-03-25T13:13:33;6.57;;;2.53;;
82806;SDS011;72563;44.816;20.484;2024-03-25T13:15:59;16.02;;;6.70;;
82806;SDS011;72563;44.816;20.484;2024-03-25T13:18:24;8.20;;;2.58;;
82806;SDS011;72563;44.816;20.484;2024-03-25T13:20:50;24.58;;;9.05;;
82806;SDS011;72563;44.816;20.484;2024-03-25T13:23:16;117.32;;;35.83;;
82806;SDS011;72563;44.816;20.484;2024-03-25T13:25:42;11.95;;;4.10;;
82806;SDS011;72563;44.816;20.484;2024-03-25T13:28:07;70.65;;;21.13;;
82806;SDS011;72563;44.816;20.484;2024-03-25T13:30:33;29.38;;;8.18;;
82806;SDS011;72563;44.816;20.484;2024-03-25T13:32:59;118.22;;;34.85;;
82806;SDS011;72563;44.816;20.484;2024-03-25T13:35:25;33.47;;;11.45;;
82806;SDS011;72563;44.816;20.484;2024-03-25T13:37:52;18.65;;;6.95;;
82806;SDS011;72563;44.816;20.484;2024-03-25T13:40:17;8.73;;;3.63;;
82806;SDS011;72563;44.816;20.484;2024-03-25T13:42:43;7.85;;;3.30;;
82806;SDS011;72563;44.816;20.484;2024-03-25T13:45:10;4.38;;;1.70;;
82806;SDS011;72563;44.816;20.484;2024-03-25T13:47:35;4.43;;;1.50;;
82806;SDS011;72563;44.816;20.484;2024-03-25T13:50:06;4.60;;;1.42;;
82806;SDS011;72563;44.816;20.484;2024-03-25T13:52:33;5.18;;;2.00;;
82806;SDS011;72563;44.816;20.484;2024-03-25T13:54:59;5.35;;;1.55;;
82806;SDS011;72563;44.816;20.484;2024-03-25T13:57:25;7.82;;;3.22;;
82806;SDS011;72563;44.816;20.484;2024-03-25T13:59:51;11.05;;;4.00;;
82806;SDS011;72563;44.816;20.484;2024-03-25T14:02:16;8.70;;;2.95;;
82806;SDS011;72563;44.816;20.484;2024-03-25T14:04:42;5.15;;;1.70;;
82806;SDS011;72563;44.816;20.484;2024-03-25T14:07:08;5.25;;;1.67;;
82806;SDS011;72563;44.816;20.484;2024-03-25T14:09:34;3.78;;;1.33;;
82806;SDS011;72563;44.816;20.484;2024-03-25T14:11:59;5.95;;;2.08;;
82806;SDS011;72563;44.816;20.484;2024-03-25T14:14:26;6.18;;;1.70;;
82806;SDS011;72563;44.816;20.484;2024-03-25T14:16:51;6.65;;;2.65;;
82806;SDS011;72563;44.816;20.484;2024-03-25T14:19:17;4.95;;;1.75;;
82806;SDS011;72563;44.816;20.484;2024-03-25T14:21:43;2.97;;;1.10;;
82806;SDS011;72563;44.816;20.484;2024-03-25T14:24:09;8.43;;;3.42;;